createdAt,value
2023-01-11T00:01:07.798Z,92.52
2023-01-11T00:03:34.406Z,92.54
2023-01-11T00:06:00.899Z,92.71
2023-01-11T00:08:28.229Z,92.89
2023-01-11T00:10:55.353Z,92.73
2023-01-11T00:13:21.790Z,92.23
2023-01-11T00:15:48.293Z,92.01
2023-01-11T00:18:14.784Z,92.16
2023-01-11T00:20:41.944Z,92.34
2023-01-11T00:23:08.783Z,92.00
2023-01-11T00:25:35.939Z,91.11
2023-01-11T00:28:02.808Z,91.63
2023-01-11T00:30:29.217Z,91.48
2023-01-11T00:32:59.858Z,91.22
2023-01-11T00:35:27.498Z,91.04
2023-01-11T00:37:54.378Z,91.13
2023-01-11T00:40:21.411Z,91.27
2023-01-11T00:43:06.573Z,91.55
2023-01-11T00:45:51.420Z,90.99
2023-01-11T00:48:17.868Z,90.81
2023-01-11T00:50:44.259Z,90.40
2023-01-11T00:53:10.786Z,90.30
2023-01-11T00:55:37.498Z,90.67
2023-01-11T00:58:04.324Z,90.23
2023-01-11T01:00:31.250Z,90.49
2023-01-11T01:02:58.126Z,90.54
2023-01-11T01:05:24.677Z,90.69
2023-01-11T01:07:51.210Z,89.95
2023-01-11T01:10:18.456Z,90.38
2023-01-11T01:13:04.229Z,90.62
2023-01-11T01:15:31.778Z,90.73
2023-01-11T01:17:58.439Z,90.49
2023-01-11T01:20:25.432Z,90.70
2023-01-11T01:22:52.403Z,90.90
2023-01-11T01:25:19.162Z,90.74
2023-01-11T01:27:45.588Z,90.63
2023-01-11T01:30:12.729Z,90.54
2023-01-11T01:32:39.307Z,90.68
2023-01-11T01:35:06.198Z,91.28
2023-01-11T01:37:32.658Z,91.13
2023-01-11T01:39:59.115Z,90.89
2023-01-11T01:42:25.553Z,91.08
2023-01-11T01:44:58.455Z,91.38
2023-01-11T01:47:51.928Z,91.00
2023-01-11T01:50:29.422Z,90.81
2023-01-11T01:53:01.490Z,91.34
2023-01-11T01:55:35.685Z,91.51
2023-01-11T01:58:07.283Z,91.13
2023-01-11T02:00:33.889Z,90.67
2023-01-11T02:03:01.744Z,90.52
2023-01-11T02:05:28.389Z,90.16
2023-01-11T02:07:57.417Z,90.69
2023-01-11T02:10:23.891Z,90.48
2023-01-11T02:12:58.279Z,91.07
2023-01-11T02:15:25.287Z,90.55
2023-01-11T02:17:51.752Z,90.59
2023-01-11T02:20:44.731Z,90.35
2023-01-11T02:23:29.149Z,90.10
2023-01-11T02:26:12.846Z,89.79
2023-01-11T02:29:06.847Z,90.15
2023-01-11T02:32:04.040Z,90.76
2023-01-11T02:34:44.043Z,90.23
2023-01-11T02:37:34.689Z,89.89
2023-01-11T02:40:10.313Z,89.63
2023-01-11T02:43:09.406Z,89.99
2023-01-11T02:45:43.248Z,89.93
2023-01-11T02:48:14.713Z,89.34
2023-01-11T02:51:04.546Z,89.56
2023-01-11T02:53:38.441Z,90.36
2023-01-11T02:56:13.454Z,89.27
2023-01-11T02:58:43.496Z,89.90
2023-01-11T03:01:10.982Z,90.02
2023-01-11T03:03:37.438Z,90.15
2023-01-11T03:06:13.716Z,89.38
2023-01-11T03:08:46.078Z,89.93
2023-01-11T03:11:42.377Z,89.44
2023-01-11T03:14:55.689Z,90.23
2023-01-11T03:17:37.357Z,89.38
2023-01-11T03:20:12.569Z,90.26
2023-01-11T03:22:53.157Z,90.14
2023-01-11T03:25:30.196Z,89.64
2023-01-11T03:28:07.060Z,89.80
2023-01-11T03:30:40.220Z,90.22
2023-01-11T03:33:13.316Z,89.35
2023-01-11T03:35:47.988Z,89.93
2023-01-11T03:38:27.751Z,89.62
2023-01-11T03:41:01.299Z,89.53
2023-01-11T03:43:29.107Z,89.46
2023-01-11T03:46:09.105Z,89.10
2023-01-11T03:48:48.230Z,88.96
2023-01-11T03:51:19.237Z,89.73
2023-01-11T03:53:49.221Z,89.14
2023-01-11T03:56:19.189Z,89.41
2023-01-11T03:58:45.657Z,89.26
2023-01-11T04:01:13.044Z,89.07
2023-01-11T04:03:39.523Z,89.35
2023-01-11T04:06:06.226Z,89.38
2023-01-11T04:08:32.698Z,89.19
2023-01-11T04:10:59.368Z,89.32
2023-01-11T04:13:25.819Z,89.63
2023-01-11T04:15:54.114Z,89.15
2023-01-11T04:18:20.535Z,89.67
2023-01-11T04:20:47.027Z,89.93
2023-01-11T04:23:14.987Z,89.73
2023-01-11T04:25:41.443Z,89.60
2023-01-11T04:28:07.861Z,90.28
2023-01-11T04:30:35.904Z,90.59
2023-01-11T04:33:02.362Z,90.56
2023-01-11T04:35:28.767Z,89.41
2023-01-11T04:37:56.331Z,90.16
2023-01-11T04:40:24.202Z,89.70
2023-01-11T04:42:50.628Z,90.12
2023-01-11T04:45:17.138Z,89.61
2023-01-11T04:47:43.586Z,89.66
2023-01-11T04:50:11.769Z,90.02
2023-01-11T04:52:40.507Z,90.61
2023-01-11T04:55:07.683Z,89.70
2023-01-11T04:57:34.073Z,89.89
2023-01-11T05:00:00.540Z,90.08
2023-01-11T05:02:26.934Z,89.98
2023-01-11T05:04:53.332Z,90.78
2023-01-11T05:07:19.793Z,90.92
2023-01-11T05:09:46.225Z,91.04
2023-01-11T05:12:12.626Z,90.85
2023-01-11T05:14:39.032Z,91.30
2023-01-11T05:17:05.464Z,91.09
2023-01-11T05:19:31.916Z,90.67
2023-01-11T05:21:58.506Z,91.68
2023-01-11T05:24:24.976Z,91.83
2023-01-11T05:26:52.593Z,92.08
2023-01-11T05:29:21.059Z,92.08
2023-01-11T05:31:48.365Z,92.12
2023-01-11T05:34:16.127Z,91.20
2023-01-11T05:36:43.318Z,91.86
2023-01-11T05:39:11.825Z,91.77
2023-01-11T05:41:38.823Z,92.13
2023-01-11T05:44:24.240Z,91.12
2023-01-11T05:46:50.701Z,91.50
2023-01-11T05:49:17.315Z,91.78
2023-01-11T05:51:43.863Z,91.36
2023-01-11T05:54:13.522Z,91.47
2023-01-11T05:56:42.333Z,92.01
2023-01-11T05:59:09.153Z,92.13
2023-01-11T06:01:35.745Z,91.22
2023-01-11T06:04:02.213Z,90.90
2023-01-11T06:06:28.686Z,91.78
2023-01-11T06:08:55.191Z,91.01
2023-01-11T06:11:21.656Z,91.16
2023-01-11T06:13:48.088Z,90.49
2023-01-11T06:16:17.383Z,90.42
2023-01-11T06:18:49.227Z,90.67
2023-01-11T06:21:16.519Z,90.87
2023-01-11T06:23:46.193Z,90.29
2023-01-11T06:26:15.326Z,89.92
2023-01-11T06:28:42.543Z,90.55
2023-01-11T06:31:09.368Z,89.99
2023-01-11T06:33:36.674Z,89.29
2023-01-11T06:36:06.283Z,90.03
2023-01-11T06:38:33.026Z,89.68
2023-01-11T06:41:01.410Z,89.66
2023-01-11T06:43:28.884Z,89.71
2023-01-11T06:45:55.653Z,88.93
2023-01-11T06:48:23.759Z,89.24
2023-01-11T06:50:52.200Z,89.10
2023-01-11T06:53:18.975Z,89.80
2023-01-11T06:55:45.424Z,89.12
2023-01-11T06:58:11.906Z,89.32
2023-01-11T07:00:38.554Z,89.07
2023-01-11T07:03:06.251Z,89.25
2023-01-11T07:05:34.523Z,88.50
2023-01-11T07:08:01.489Z,89.75
2023-01-11T07:10:28.481Z,89.99
2023-01-11T07:12:54.998Z,89.22
2023-01-11T07:15:22.102Z,90.06
2023-01-11T07:17:54.038Z,88.97
2023-01-11T07:20:20.521Z,88.62
2023-01-11T07:22:46.922Z,89.05
2023-01-11T07:25:13.365Z,88.79
2023-01-11T07:27:39.796Z,88.53
2023-01-11T07:30:08.427Z,88.89
2023-01-11T07:32:36.101Z,88.74
2023-01-11T07:35:02.593Z,88.97
2023-01-11T07:37:32.523Z,88.76
2023-01-11T07:39:59.079Z,87.88
2023-01-11T07:42:43.972Z,87.47
2023-01-11T07:45:10.950Z,87.10
2023-01-11T07:47:37.380Z,87.10
2023-01-11T07:50:04.146Z,86.99
2023-01-11T07:52:30.567Z,87.17
2023-01-11T07:55:02.271Z,85.82
2023-01-11T07:57:30.230Z,86.14
2023-01-11T07:59:56.681Z,85.89
2023-01-11T08:02:23.242Z,85.33
2023-01-11T08:04:50.336Z,85.46
2023-01-11T08:07:16.809Z,85.59
2023-01-11T08:09:43.214Z,85.34
2023-01-11T08:12:28.388Z,85.39
2023-01-11T08:14:55.039Z,86.06
2023-01-11T08:17:21.537Z,86.27
2023-01-11T08:19:48.004Z,86.18
2023-01-11T08:22:14.420Z,85.90
2023-01-11T08:24:40.871Z,86.15
2023-01-11T08:27:07.406Z,86.19
2023-01-11T08:29:33.881Z,85.29
2023-01-11T08:32:00.636Z,85.57
2023-01-11T08:34:30.291Z,85.78
2023-01-11T08:36:57.497Z,86.04
2023-01-11T08:39:24.838Z,85.34
2023-01-11T08:41:51.327Z,84.76
2023-01-11T08:44:29.033Z,85.31
2023-01-11T08:46:59.627Z,84.25
2023-01-11T08:49:26.097Z,85.08
2023-01-11T08:51:52.580Z,84.05
2023-01-11T08:54:19.006Z,84.16
2023-01-11T08:56:45.436Z,83.74
2023-01-11T08:59:12.029Z,83.79
2023-01-11T09:01:38.504Z,84.13
2023-01-11T09:04:15.576Z,83.88
2023-01-11T09:06:49.765Z,84.08
2023-01-11T09:09:16.918Z,84.55
2023-01-11T09:11:56.574Z,84.75
2023-01-11T09:14:25.320Z,83.59
2023-01-11T09:16:52.991Z,84.58
2023-01-11T09:19:19.743Z,84.37
2023-01-11T09:21:46.579Z,84.20
2023-01-11T09:24:13.590Z,84.79
2023-01-11T09:26:41.521Z,84.36
2023-01-11T09:29:08.393Z,84.69
2023-01-11T09:31:35.001Z,84.36
2023-01-11T09:34:01.657Z,83.75
2023-01-11T09:36:28.955Z,84.01
2023-01-11T09:38:57.755Z,83.82
2023-01-11T09:41:50.811Z,84.29
2023-01-11T09:44:23.109Z,84.09
2023-01-11T09:46:56.061Z,84.26
2023-01-11T09:49:28.073Z,83.95
2023-01-11T09:52:23.763Z,84.22
2023-01-11T09:54:51.184Z,85.13
2023-01-11T09:57:23.825Z,85.27
2023-01-11T10:00:00.766Z,85.93
2023-01-11T10:02:59.114Z,85.92
2023-01-11T10:05:29.800Z,85.97
2023-01-11T10:14:01.319Z,86.37
2023-01-11T10:18:38.533Z,87.41
2023-01-11T10:20:05.701Z,86.76
2023-01-11T10:22:40.959Z,87.33
2023-01-11T10:25:26.628Z,88.10
2023-01-11T10:28:01.556Z,87.31
2023-01-11T10:31:06.724Z,87.40
2023-01-11T10:34:06.823Z,87.35
2023-01-11T10:37:23.856Z,87.73
2023-01-11T10:40:19.075Z,87.48
2023-01-11T10:42:52.249Z,87.54
2023-01-11T10:45:23.693Z,87.66
2023-01-11T10:48:05.596Z,87.53
2023-01-11T10:50:53.951Z,87.53
2023-01-11T10:53:32.544Z,88.24
2023-01-11T10:56:21.507Z,88.43
2023-01-11T10:59:15.586Z,88.52
2023-01-11T11:01:54.610Z,89.02
2023-01-11T11:04:27.219Z,89.69
2023-01-11T11:07:05.450Z,90.40
2023-01-11T11:09:50.264Z,90.75
2023-01-11T11:12:25.850Z,91.20
2023-01-11T11:15:07.937Z,92.10
2023-01-11T11:17:36.861Z,91.61
2023-01-11T11:20:20.928Z,92.56
2023-01-11T11:22:52.317Z,92.91
2023-01-11T11:25:27.275Z,93.65
2023-01-11T11:28:04.390Z,93.43
2023-01-11T11:30:41.494Z,93.59
2023-01-11T11:33:20.005Z,93.80
2023-01-11T11:35:56.634Z,94.16
2023-01-11T11:38:26.173Z,93.87
2023-01-11T11:41:08.233Z,93.85
2023-01-11T11:43:39.650Z,94.26
2023-01-11T11:46:19.557Z,93.65
2023-01-11T11:49:11.174Z,93.95
2023-01-11T11:51:38.891Z,94.03
2023-01-11T11:54:05.479Z,94.12
2023-01-11T11:56:41.671Z,94.13
2023-01-11T11:59:13.852Z,94.35
2023-01-11T12:01:47.247Z,94.18
2023-01-11T12:04:24.081Z,94.39
2023-01-11T12:07:06.743Z,94.68
2023-01-11T12:09:35.111Z,94.91
2023-01-11T12:12:02.686Z,95.08
2023-01-11T12:14:32.326Z,94.87
2023-01-11T12:16:59.308Z,95.12
2023-01-11T12:19:45.250Z,95.44
2023-01-11T12:22:17.334Z,95.32
2023-01-11T12:24:45.749Z,94.86
2023-01-11T12:27:35.760Z,94.98
2023-01-11T12:30:11.312Z,95.25
2023-01-11T12:32:59.631Z,95.48
2023-01-11T12:35:46.929Z,95.02
2023-01-11T12:38:42.268Z,95.35
2023-01-11T12:41:43.957Z,95.24
2023-01-11T12:44:14.486Z,95.21
2023-01-11T12:46:43.686Z,95.51
2023-01-11T12:49:21.054Z,95.17
2023-01-11T12:52:12.848Z,95.35
2023-01-11T12:54:54.252Z,95.53
2023-01-11T12:57:26.654Z,95.22
2023-01-11T12:59:59.155Z,95.31
2023-01-11T13:02:52.050Z,95.14
2023-01-11T13:05:26.655Z,95.25
2023-01-11T13:08:04.485Z,95.31
2023-01-11T13:10:42.224Z,95.25
2023-01-11T13:13:31.902Z,95.39
2023-01-11T13:16:10.546Z,95.48
2023-01-11T13:18:46.027Z,95.38
2023-01-11T13:21:31.957Z,95.58
2023-01-11T13:24:27.541Z,95.80
2023-01-11T13:27:00.365Z,95.51
2023-01-11T13:29:31.303Z,96.00
2023-01-11T13:32:01.277Z,95.76
2023-01-11T13:35:09.235Z,96.05
2023-01-11T13:37:47.203Z,95.99
2023-01-11T13:40:26.127Z,95.95
2023-01-11T13:43:16.032Z,96.09
2023-01-11T13:45:55.208Z,96.20
2023-01-11T13:48:41.049Z,96.60
2023-01-11T13:51:33.210Z,96.47
2023-01-11T13:54:11.813Z,96.55
2023-01-11T13:56:42.899Z,97.02
2023-01-11T13:59:16.683Z,96.77
2023-01-11T14:01:59.993Z,96.86
2023-01-11T14:04:45.322Z,96.91
2023-01-11T14:07:30.539Z,97.52
2023-01-11T14:10:08.435Z,96.73
2023-01-11T14:12:38.180Z,97.34
2023-01-11T14:15:12.955Z,97.53
2023-01-11T14:18:05.752Z,97.99
2023-01-11T14:20:46.999Z,98.21
2023-01-11T14:23:17.063Z,98.08
2023-01-11T14:25:46.157Z,98.06
2023-01-11T14:28:40.009Z,97.93
2023-01-11T14:31:32.298Z,98.33
2023-01-11T14:34:10.922Z,98.60
2023-01-11T14:37:00.473Z,98.81
2023-01-11T14:39:39.120Z,98.51
2023-01-11T14:42:31.274Z,99.31
2023-01-11T14:45:43.135Z,99.45
2023-01-11T14:48:27.218Z,99.54
2023-01-11T14:51:33.290Z,99.48
2023-01-11T14:54:11.910Z,99.79
2023-01-11T14:56:44.445Z,100.00
2023-01-11T14:59:32.834Z,100.00
2023-01-11T15:02:05.472Z,100.00
2023-01-11T15:04:32.941Z,100.00
2023-01-11T15:07:00.643Z,100.00
2023-01-11T15:09:43.424Z,100.00
2023-01-11T15:12:27.917Z,100.00
2023-01-11T15:15:01.378Z,100.00
2023-01-11T15:17:47.802Z,100.00
2023-01-11T15:20:17.852Z,100.00
2023-01-11T15:22:45.847Z,100.00
2023-01-11T15:25:23.413Z,100.00
2023-01-11T15:27:51.323Z,99.15
2023-01-11T15:30:29.936Z,98.49
2023-01-11T15:33:18.019Z,97.70
2023-01-11T15:36:11.640Z,97.36
2023-01-11T15:38:56.543Z,97.23
2023-01-11T15:42:01.382Z,96.57
2023-01-11T15:45:17.501Z,96.98
2023-01-11T15:48:13.072Z,97.12
2023-01-11T15:51:07.515Z,96.91
2023-01-11T15:53:56.360Z,96.75
2023-01-11T15:56:44.749Z,96.64
2023-01-11T15:59:25.875Z,96.11
2023-01-11T16:02:29.177Z,96.52
2023-01-11T16:04:59.154Z,96.09
2023-01-11T16:07:42.019Z,95.84
2023-01-11T16:10:27.755Z,95.77
2023-01-11T16:13:06.217Z,95.79
2023-01-11T16:15:48.154Z,95.49
2023-01-11T16:18:34.420Z,95.55
2023-01-11T16:21:07.243Z,95.47
2023-01-11T16:23:34.216Z,95.19
2023-01-11T16:26:01.734Z,94.65
2023-01-11T16:28:28.965Z,94.86
2023-01-11T16:31:01.036Z,94.54
2023-01-11T16:33:30.134Z,94.64
2023-01-11T16:36:09.886Z,94.12
2023-01-11T16:38:43.372Z,94.64
2023-01-11T16:41:13.547Z,94.77
2023-01-11T16:43:47.894Z,94.37
2023-01-11T16:46:49.992Z,93.85
2023-01-11T16:49:18.002Z,94.59
2023-01-11T16:51:45.390Z,94.23
2023-01-11T16:54:26.124Z,94.51
2023-01-11T16:56:53.689Z,93.92
2023-01-11T16:59:26.405Z,94.27
2023-01-11T17:01:56.578Z,94.05
2023-01-11T17:04:29.536Z,94.20
2023-01-11T17:07:28.895Z,94.13
2023-01-11T17:10:32.225Z,94.02
2023-01-11T17:13:52.128Z,94.60
2023-01-11T17:16:20.548Z,94.82
2023-01-11T17:18:47.219Z,94.78
2023-01-11T17:21:22.383Z,94.65
2023-01-11T17:23:50.480Z,94.93
2023-01-11T17:26:25.784Z,93.92
2023-01-11T17:28:58.839Z,93.54
2023-01-11T17:31:30.888Z,92.93
2023-01-11T17:34:02.046Z,92.55
2023-01-11T17:36:29.573Z,92.08
2023-01-11T17:38:57.996Z,91.79
2023-01-11T17:41:45.748Z,92.02
2023-01-11T17:44:37.502Z,91.16
2023-01-11T17:47:07.319Z,91.53
2023-01-11T17:49:36.553Z,91.42
2023-01-11T17:52:34.334Z,92.04
2023-01-11T17:55:17.930Z,91.64
2023-01-11T17:57:44.667Z,91.45
2023-01-11T18:00:26.130Z,91.41
2023-01-11T18:02:53.410Z,90.87
2023-01-11T18:05:24.513Z,91.56
2023-01-11T18:07:56.761Z,91.88
2023-01-11T18:10:27.127Z,91.15
2023-01-11T18:12:56.145Z,91.11
2023-01-11T18:15:30.938Z,91.50
2023-01-11T18:17:57.881Z,91.39
2023-01-11T18:20:24.317Z,91.42
2023-01-11T18:22:53.531Z,92.01
2023-01-11T18:25:28.889Z,91.87
2023-01-11T18:28:28.127Z,91.67
2023-01-11T18:30:59.093Z,92.00
2023-01-11T18:33:29.239Z,92.23
2023-01-11T18:35:59.671Z,92.49
2023-01-11T18:38:31.421Z,92.00
2023-01-11T18:41:20.302Z,92.35
2023-01-11T18:43:46.746Z,92.29
2023-01-11T18:46:13.193Z,91.62
2023-01-11T18:48:39.628Z,91.36
2023-01-11T18:51:06.301Z,91.39
2023-01-11T18:53:32.729Z,91.54
2023-01-11T18:55:59.104Z,91.40
2023-01-11T18:58:25.506Z,91.24
2023-01-11T19:00:51.905Z,90.94
2023-01-11T19:03:18.360Z,90.90
2023-01-11T19:05:44.820Z,91.32
2023-01-11T19:08:11.277Z,90.83
2023-01-11T19:10:37.686Z,91.47
2023-01-11T19:13:04.119Z,90.37
2023-01-11T19:15:30.629Z,90.80
2023-01-11T19:17:57.175Z,90.49
2023-01-11T19:20:23.594Z,89.32
2023-01-11T19:22:50.054Z,89.55
2023-01-11T19:25:16.553Z,89.05
2023-01-11T19:27:43.154Z,88.87
2023-01-11T19:30:10.446Z,87.92
2023-01-11T19:32:37.189Z,89.05
2023-01-11T19:35:04.010Z,88.35
2023-01-11T19:37:30.541Z,88.05
2023-01-11T19:39:57.048Z,87.86
2023-01-11T19:42:23.865Z,87.82
2023-01-11T19:44:51.331Z,88.31
2023-01-11T19:47:17.786Z,88.47
2023-01-11T19:49:44.369Z,88.54
2023-01-11T19:52:13.746Z,88.92
2023-01-11T19:54:42.243Z,88.90
2023-01-11T19:57:14.184Z,88.96
2023-01-11T19:59:40.911Z,88.44
2023-01-11T20:02:07.784Z,88.57
2023-01-11T20:04:34.469Z,88.60
2023-01-11T20:07:00.899Z,88.36
2023-01-11T20:09:27.325Z,88.32
2023-01-11T20:11:55.366Z,87.72
2023-01-11T20:14:22.013Z,87.48
2023-01-11T20:16:48.454Z,86.74
2023-01-11T20:19:14.925Z,87.69
2023-01-11T20:21:41.502Z,86.90
2023-01-11T20:24:10.109Z,86.65
2023-01-11T20:26:36.599Z,86.60
2023-01-11T20:29:05.421Z,86.11
2023-01-11T20:31:35.044Z,85.97
2023-01-11T20:34:07.508Z,86.52
2023-01-11T20:36:33.993Z,85.97
2023-01-11T20:39:00.547Z,86.68
2023-01-11T20:41:46.351Z,86.13
2023-01-11T20:44:20.243Z,85.61
2023-01-11T20:46:48.225Z,85.53
2023-01-11T20:49:15.819Z,85.76
2023-01-11T20:51:43.151Z,85.02
2023-01-11T20:54:10.069Z,85.07
2023-01-11T20:56:38.340Z,85.38
2023-01-11T20:59:07.392Z,86.22
2023-01-11T21:01:34.549Z,85.91
2023-01-11T21:04:09.693Z,85.56
2023-01-11T21:06:39.467Z,85.36
2023-01-11T21:09:07.589Z,86.16
2023-01-11T21:11:34.784Z,85.60
2023-01-11T21:14:04.062Z,85.51
2023-01-11T21:16:31.379Z,84.74
2023-01-11T21:19:03.335Z,85.04
2023-01-11T21:21:32.266Z,84.82
2023-01-11T21:24:03.492Z,84.27
2023-01-11T21:26:31.173Z,84.53
2023-01-11T21:28:59.777Z,84.09
2023-01-11T21:31:28.196Z,83.55
2023-01-11T21:33:54.976Z,82.66
2023-01-11T21:36:23.688Z,82.61
2023-01-11T21:38:50.800Z,83.34
2023-01-11T21:41:42.926Z,83.67
2023-01-11T21:44:10.911Z,83.27
2023-01-11T21:46:37.998Z,82.21
2023-01-11T21:49:04.555Z,82.85
2023-01-11T21:51:31.607Z,82.85
2023-01-11T21:53:59.300Z,82.72
2023-01-11T21:56:26.382Z,82.39
2023-01-11T21:58:52.871Z,81.92
2023-01-11T22:01:21.310Z,81.58
2023-01-11T22:03:48.596Z,81.35
2023-01-11T22:06:16.220Z,81.75
2023-01-11T22:08:45.005Z,81.58
2023-01-11T22:11:13.710Z,82.13
2023-01-11T22:13:40.146Z,81.37
2023-01-11T22:16:12.099Z,81.80
2023-01-11T22:18:40.547Z,81.20
2023-01-11T22:21:18.232Z,80.98
2023-01-11T22:23:46.232Z,80.49
2023-01-11T22:26:15.239Z,80.81
2023-01-11T22:29:00.845Z,80.66
2023-01-11T22:31:28.850Z,80.53
2023-01-11T22:33:56.049Z,80.35
2023-01-11T22:36:23.691Z,80.80
2023-01-11T22:38:50.317Z,79.85
2023-01-11T22:41:16.796Z,80.45
2023-01-11T22:43:43.833Z,80.34
2023-01-11T22:46:16.176Z,80.32
2023-01-11T22:48:43.765Z,79.89
2023-01-11T22:51:11.664Z,79.69
2023-01-11T22:53:39.511Z,79.71
2023-01-11T22:56:07.012Z,79.80
2023-01-11T22:58:34.946Z,80.27
2023-01-11T23:01:12.486Z,80.10
2023-01-11T23:03:40.203Z,79.91
2023-01-11T23:06:07.784Z,80.13
2023-01-11T23:08:42.216Z,79.47
2023-01-11T23:11:10.263Z,80.93
2023-01-11T23:13:58.792Z,80.47
2023-01-11T23:16:25.219Z,81.25
2023-01-11T23:18:51.647Z,80.85
2023-01-11T23:21:18.136Z,80.81
2023-01-11T23:23:44.545Z,81.64
2023-01-11T23:26:17.871Z,81.33
2023-01-11T23:28:45.423Z,81.00
2023-01-11T23:31:17.819Z,82.27
2023-01-11T23:33:46.067Z,81.22
2023-01-11T23:36:13.853Z,82.26
2023-01-11T23:38:40.387Z,82.32
2023-01-11T23:41:27.108Z,82.51
2023-01-11T23:43:53.638Z,82.42
2023-01-11T23:46:39.159Z,82.96
2023-01-11T23:49:07.133Z,83.48
2023-01-11T23:51:34.378Z,83.99
2023-01-11T23:54:01.906Z,83.38
2023-01-11T23:56:29.567Z,83.81
2023-01-11T23:58:57.033Z,83.48
